sensor_id;sensor_type;location;lat;lon;timestamp;P1;durP1;ratioP1;P2;durP2;ratioP2
58412;SDS011;44209;52.952;6.790;2023-06-22T00:02:25;40.72;;;36.30;;
58412;SDS011;44209;52.952;6.790;2023-06-22T00:04:50;41.90;;;36.97;;
58412;SDS011;44209;52.952;6.790;2023-06-22T00:07:16;42.35;;;36.28;;
58412;SDS011;44209;52.952;6.790;2023-06-22T00:09:42;48.55;;;40.38;;
58412;SDS011;44209;52.952;6.790;2023-06-22T00:12:08;50.25;;;40.42;;
58412;SDS011;44209;52.952;6.790;2023-06-22T00:14:33;46.15;;;39.58;;
58412;SDS011;44209;52.952;6.790;2023-06-22T00:16:59;46.13;;;38.75;;
58412;SDS011;44209;52.952;6.790;2023-06-22T00:19:25;41.58;;;37.00;;
58412;SDS011;44209;52.952;6.790;2023-06-22T00:21:50;43.80;;;37.10;;
58412;SDS011;44209;52.952;6.790;2023-06-22T00:24:19;39.85;;;35.33;;
58412;SDS011;44209;52.952;6.790;2023-06-22T00:26:46;43.25;;;38.30;;
58412;SDS011;44209;52.952;6.790;2023-06-22T00:29:13;38.63;;;34.38;;
58412;SDS011;44209;52.952;6.790;2023-06-22T00:31:38;38.42;;;34.03;;
58412;SDS011;44209;52.952;6.790;2023-06-22T00:34:04;39.72;;;35.03;;
58412;SDS011;44209;52.952;6.790;2023-06-22T00:36:33;39.50;;;34.70;;
58412;SDS011;44209;52.952;6.790;2023-06-22T00:38:59;53.53;;;40.20;;
58412;SDS011;44209;52.952;6.790;2023-06-22T00:41:25;51.17;;;41.88;;
58412;SDS011;44209;52.952;6.790;2023-06-22T00:43:53;46.22;;;39.38;;
58412;SDS011;44209;52.952;6.790;2023-06-22T00:46:20;41.60;;;36.25;;
58412;SDS011;44209;52.952;6.790;2023-06-22T00:48:47;43.45;;;36.65;;
58412;SDS011;44209;52.952;6.790;2023-06-22T00:51:14;46.25;;;38.53;;
58412;SDS011;44209;52.952;6.790;2023-06-22T00:53:39;48.40;;;38.97;;
58412;SDS011;44209;52.952;6.790;2023-06-22T00:56:06;48.72;;;37.38;;
58412;SDS011;44209;52.952;6.790;2023-06-22T00:58:34;50.75;;;40.10;;
58412;SDS011;44209;52.952;6.790;2023-06-22T01:01:01;43.28;;;35.95;;
58412;SDS011;44209;52.952;6.790;2023-06-22T01:03:27;41.13;;;35.25;;
58412;SDS011;44209;52.952;6.790;2023-06-22T01:05:53;48.08;;;37.05;;
58412;SDS011;44209;52.952;6.790;2023-06-22T01:08:40;42.00;;;35.40;;
58412;SDS011;44209;52.952;6.790;2023-06-22T01:11:16;41.47;;;34.22;;
58412;SDS011;44209;52.952;6.790;2023-06-22T01:16:45;41.70;;;34.30;;
58412;SDS011;44209;52.952;6.790;2023-06-22T01:19:20;47.65;;;36.50;;
58412;SDS011;44209;52.952;6.790;2023-06-22T01:21:55;40.35;;;32.88;;
58412;SDS011;44209;52.952;6.790;2023-06-22T01:24:24;46.42;;;34.95;;
58412;SDS011;44209;52.952;6.790;2023-06-22T01:29:26;47.28;;;34.90;;
58412;SDS011;44209;52.952;6.790;2023-06-22T01:31:53;43.15;;;32.15;;
58412;SDS011;44209;52.952;6.790;2023-06-22T01:34:21;47.00;;;35.05;;
58412;SDS011;44209;52.952;6.790;2023-06-22T01:36:48;48.67;;;35.50;;
58412;SDS011;44209;52.952;6.790;2023-06-22T01:39:15;43.78;;;34.45;;
58412;SDS011;44209;52.952;6.790;2023-06-22T01:41:42;43.22;;;34.42;;
58412;SDS011;44209;52.952;6.790;2023-06-22T01:44:08;47.03;;;34.42;;
58412;SDS011;44209;52.952;6.790;2023-06-22T01:46:35;43.70;;;34.22;;
58412;SDS011;44209;52.952;6.790;2023-06-22T01:49:02;45.08;;;34.15;;
58412;SDS011;44209;52.952;6.790;2023-06-22T01:51:29;40.67;;;32.03;;
58412;SDS011;44209;52.952;6.790;2023-06-22T01:53:55;46.75;;;33.17;;
58412;SDS011;44209;52.952;6.790;2023-06-22T01:56:21;46.20;;;35.38;;
58412;SDS011;44209;52.952;6.790;2023-06-22T01:58:50;39.47;;;32.30;;
58412;SDS011;44209;52.952;6.790;2023-06-22T02:01:25;37.83;;;29.95;;
58412;SDS011;44209;52.952;6.790;2023-06-22T02:04:19;41.03;;;31.67;;
58412;SDS011;44209;52.952;6.790;2023-06-22T02:06:51;38.67;;;30.50;;
58412;SDS011;44209;52.952;6.790;2023-06-22T02:09:22;38.20;;;29.30;;
58412;SDS011;44209;52.952;6.790;2023-06-22T02:11:50;36.75;;;30.25;;
58412;SDS011;44209;52.952;6.790;2023-06-22T02:14:20;41.70;;;31.17;;
58412;SDS011;44209;52.952;6.790;2023-06-22T02:16:47;38.15;;;30.42;;
58412;SDS011;44209;52.952;6.790;2023-06-22T02:19:12;38.92;;;30.50;;
58412;SDS011;44209;52.952;6.790;2023-06-22T02:21:43;39.88;;;31.38;;
58412;SDS011;44209;52.952;6.790;2023-06-22T02:24:10;44.38;;;32.90;;
58412;SDS011;44209;52.952;6.790;2023-06-22T02:26:35;40.30;;;31.55;;
58412;SDS011;44209;52.952;6.790;2023-06-22T02:29:03;37.83;;;30.00;;
58412;SDS011;44209;52.952;6.790;2023-06-22T02:31:29;39.20;;;31.48;;
58412;SDS011;44209;52.952;6.790;2023-06-22T02:33:58;37.75;;;30.30;;
58412;SDS011;44209;52.952;6.790;2023-06-22T02:36:25;37.83;;;30.27;;
58412;SDS011;44209;52.952;6.790;2023-06-22T02:38:52;42.45;;;32.00;;
58412;SDS011;44209;52.952;6.790;2023-06-22T02:41:19;42.33;;;32.45;;
58412;SDS011;44209;52.952;6.790;2023-06-22T02:43:45;44.10;;;33.30;;
58412;SDS011;44209;52.952;6.790;2023-06-22T02:46:11;43.42;;;32.85;;
58412;SDS011;44209;52.952;6.790;2023-06-22T02:48:38;42.30;;;32.45;;
58412;SDS011;44209;52.952;6.790;2023-06-22T02:51:07;47.97;;;34.45;;
58412;SDS011;44209;52.952;6.790;2023-06-22T02:53:33;53.05;;;36.95;;
58412;SDS011;44209;52.952;6.790;2023-06-22T02:56:01;59.35;;;42.55;;
58412;SDS011;44209;52.952;6.790;2023-06-22T02:58:30;49.15;;;36.08;;
58412;SDS011;44209;52.952;6.790;2023-06-22T03:01:04;62.38;;;44.30;;
58412;SDS011;44209;52.952;6.790;2023-06-22T03:03:30;66.35;;;50.50;;
58412;SDS011;44209;52.952;6.790;2023-06-22T03:05:56;58.35;;;46.60;;
58412;SDS011;44209;52.952;6.790;2023-06-22T03:08:22;67.95;;;49.83;;
58412;SDS011;44209;52.952;6.790;2023-06-22T03:10:47;68.90;;;47.55;;
58412;SDS011;44209;52.952;6.790;2023-06-22T03:13:13;74.45;;;50.47;;
58412;SDS011;44209;52.952;6.790;2023-06-22T03:15:38;67.22;;;49.47;;
58412;SDS011;44209;52.952;6.790;2023-06-22T03:18:04;66.78;;;50.05;;
58412;SDS011;44209;52.952;6.790;2023-06-22T03:20:30;68.47;;;50.78;;
58412;SDS011;44209;52.952;6.790;2023-06-22T03:22:58;67.53;;;49.80;;
58412;SDS011;44209;52.952;6.790;2023-06-22T03:25:24;65.32;;;49.15;;
58412;SDS011;44209;52.952;6.790;2023-06-22T03:27:50;75.20;;;53.58;;
58412;SDS011;44209;52.952;6.790;2023-06-22T03:30:16;68.47;;;52.42;;
58412;SDS011;44209;52.952;6.790;2023-06-22T03:32:42;71.35;;;53.65;;
58412;SDS011;44209;52.952;6.790;2023-06-22T03:35:08;75.22;;;54.00;;
58412;SDS011;44209;52.952;6.790;2023-06-22T03:37:34;69.68;;;52.75;;
58412;SDS011;44209;52.952;6.790;2023-06-22T03:39:59;68.93;;;52.30;;
58412;SDS011;44209;52.952;6.790;2023-06-22T03:42:25;77.53;;;55.13;;
58412;SDS011;44209;52.952;6.790;2023-06-22T03:44:51;74.28;;;53.75;;
58412;SDS011;44209;52.952;6.790;2023-06-22T03:47:17;68.65;;;51.45;;
58412;SDS011;44209;52.952;6.790;2023-06-22T03:49:43;71.90;;;52.97;;
58412;SDS011;44209;52.952;6.790;2023-06-22T03:52:09;68.93;;;50.95;;
58412;SDS011;44209;52.952;6.790;2023-06-22T03:54:36;67.85;;;50.53;;
58412;SDS011;44209;52.952;6.790;2023-06-22T03:57:02;73.97;;;54.05;;
58412;SDS011;44209;52.952;6.790;2023-06-22T03:59:27;68.78;;;50.55;;
58412;SDS011;44209;52.952;6.790;2023-06-22T04:01:53;61.40;;;47.03;;
58412;SDS011;44209;52.952;6.790;2023-06-22T04:04:20;65.13;;;48.58;;
58412;SDS011;44209;52.952;6.790;2023-06-22T04:06:46;67.50;;;49.08;;
58412;SDS011;44209;52.952;6.790;2023-06-22T04:09:11;64.55;;;48.03;;
58412;SDS011;44209;52.952;6.790;2023-06-22T04:11:37;67.13;;;50.25;;
58412;SDS011;44209;52.952;6.790;2023-06-22T04:14:03;63.58;;;46.83;;
58412;SDS011;44209;52.952;6.790;2023-06-22T04:16:29;62.58;;;46.97;;
58412;SDS011;44209;52.952;6.790;2023-06-22T04:18:54;61.50;;;46.22;;
58412;SDS011;44209;52.952;6.790;2023-06-22T04:21:20;61.53;;;46.95;;
58412;SDS011;44209;52.952;6.790;2023-06-22T04:23:46;66.97;;;48.80;;
58412;SDS011;44209;52.952;6.790;2023-06-22T04:26:12;60.03;;;46.55;;
58412;SDS011;44209;52.952;6.790;2023-06-22T04:28:39;71.90;;;50.85;;
58412;SDS011;44209;52.952;6.790;2023-06-22T04:31:05;66.57;;;46.78;;
58412;SDS011;44209;52.952;6.790;2023-06-22T04:33:31;62.22;;;46.85;;
58412;SDS011;44209;52.952;6.790;2023-06-22T04:35:57;61.22;;;46.95;;
58412;SDS011;44209;52.952;6.790;2023-06-22T04:38:24;68.45;;;48.05;;
58412;SDS011;44209;52.952;6.790;2023-06-22T04:40:50;71.13;;;49.85;;
58412;SDS011;44209;52.952;6.790;2023-06-22T04:43:16;71.65;;;51.40;;
58412;SDS011;44209;52.952;6.790;2023-06-22T04:45:42;67.75;;;49.50;;
58412;SDS011;44209;52.952;6.790;2023-06-22T04:48:08;63.35;;;49.17;;
58412;SDS011;44209;52.952;6.790;2023-06-22T04:50:35;62.20;;;47.60;;
58412;SDS011;44209;52.952;6.790;2023-06-22T04:53:03;63.55;;;47.45;;
58412;SDS011;44209;52.952;6.790;2023-06-22T04:55:31;60.88;;;47.80;;
58412;SDS011;44209;52.952;6.790;2023-06-22T04:57:57;61.83;;;48.53;;
58412;SDS011;44209;52.952;6.790;2023-06-22T05:00:29;60.90;;;46.20;;
58412;SDS011;44209;52.952;6.790;2023-06-22T05:02:56;64.05;;;47.78;;
58412;SDS011;44209;52.952;6.790;2023-06-22T05:05:25;61.00;;;45.53;;
58412;SDS011;44209;52.952;6.790;2023-06-22T05:07:51;54.47;;;44.00;;
58412;SDS011;44209;52.952;6.790;2023-06-22T05:10:24;55.08;;;42.65;;
58412;SDS011;44209;52.952;6.790;2023-06-22T05:12:50;52.38;;;42.13;;
58412;SDS011;44209;52.952;6.790;2023-06-22T05:15:16;52.10;;;43.25;;
58412;SDS011;44209;52.952;6.790;2023-06-22T05:17:44;51.05;;;41.53;;
58412;SDS011;44209;52.952;6.790;2023-06-22T05:20:10;49.58;;;40.60;;
58412;SDS011;44209;52.952;6.790;2023-06-22T05:22:37;50.53;;;40.65;;
58412;SDS011;44209;52.952;6.790;2023-06-22T05:25:04;50.95;;;40.72;;
58412;SDS011;44209;52.952;6.790;2023-06-22T05:27:33;49.72;;;39.90;;
58412;SDS011;44209;52.952;6.790;2023-06-22T05:29:59;49.50;;;40.78;;
58412;SDS011;44209;52.952;6.790;2023-06-22T05:32:24;48.05;;;39.13;;
58412;SDS011;44209;52.952;6.790;2023-06-22T05:34:50;50.72;;;40.22;;
58412;SDS011;44209;52.952;6.790;2023-06-22T05:37:16;46.25;;;37.92;;
58412;SDS011;44209;52.952;6.790;2023-06-22T05:39:41;46.35;;;39.13;;
58412;SDS011;44209;52.952;6.790;2023-06-22T05:42:07;47.92;;;38.90;;
58412;SDS011;44209;52.952;6.790;2023-06-22T05:44:33;44.83;;;37.28;;
58412;SDS011;44209;52.952;6.790;2023-06-22T05:46:59;43.53;;;35.97;;
58412;SDS011;44209;52.952;6.790;2023-06-22T05:49:25;45.40;;;37.22;;
58412;SDS011;44209;52.952;6.790;2023-06-22T05:51:57;43.40;;;36.25;;
58412;SDS011;44209;52.952;6.790;2023-06-22T05:54:23;45.03;;;36.38;;
58412;SDS011;44209;52.952;6.790;2023-06-22T05:56:49;48.15;;;40.10;;
58412;SDS011;44209;52.952;6.790;2023-06-22T05:59:14;46.13;;;37.08;;
58412;SDS011;44209;52.952;6.790;2023-06-22T06:01:40;43.40;;;35.75;;
58412;SDS011;44209;52.952;6.790;2023-06-22T06:04:06;42.70;;;34.45;;
58412;SDS011;44209;52.952;6.790;2023-06-22T06:06:34;39.88;;;32.55;;
58412;SDS011;44209;52.952;6.790;2023-06-22T06:09:05;40.60;;;33.88;;
58412;SDS011;44209;52.952;6.790;2023-06-22T06:11:31;38.85;;;33.97;;
58412;SDS011;44209;52.952;6.790;2023-06-22T06:13:57;37.28;;;32.50;;
58412;SDS011;44209;52.952;6.790;2023-06-22T06:16:23;35.92;;;30.13;;
58412;SDS011;44209;52.952;6.790;2023-06-22T06:18:48;30.67;;;27.10;;
58412;SDS011;44209;52.952;6.790;2023-06-22T06:21:15;33.88;;;28.88;;
58412;SDS011;44209;52.952;6.790;2023-06-22T06:23:41;33.90;;;29.30;;
58412;SDS011;44209;52.952;6.790;2023-06-22T06:26:08;33.72;;;27.80;;
58412;SDS011;44209;52.952;6.790;2023-06-22T06:28:34;33.40;;;27.45;;
58412;SDS011;44209;52.952;6.790;2023-06-22T06:31:00;31.58;;;26.40;;
58412;SDS011;44209;52.952;6.790;2023-06-22T06:33:26;28.75;;;24.83;;
58412;SDS011;44209;52.952;6.790;2023-06-22T06:35:52;28.20;;;24.95;;
58412;SDS011;44209;52.952;6.790;2023-06-22T06:38:18;27.90;;;24.58;;
58412;SDS011;44209;52.952;6.790;2023-06-22T06:40:43;26.90;;;22.15;;
58412;SDS011;44209;52.952;6.790;2023-06-22T06:43:10;25.92;;;22.38;;
58412;SDS011;44209;52.952;6.790;2023-06-22T06:45:36;24.83;;;20.92;;
58412;SDS011;44209;52.952;6.790;2023-06-22T06:48:01;23.17;;;19.83;;
58412;SDS011;44209;52.952;6.790;2023-06-22T06:50:27;20.25;;;16.75;;
58412;SDS011;44209;52.952;6.790;2023-06-22T06:52:54;21.48;;;18.42;;
58412;SDS011;44209;52.952;6.790;2023-06-22T06:55:21;22.67;;;19.00;;
58412;SDS011;44209;52.952;6.790;2023-06-22T06:57:50;21.95;;;19.08;;
58412;SDS011;44209;52.952;6.790;2023-06-22T07:00:16;20.08;;;17.40;;
58412;SDS011;44209;52.952;6.790;2023-06-22T07:02:42;19.70;;;17.60;;
58412;SDS011;44209;52.952;6.790;2023-06-22T07:05:09;19.27;;;17.23;;
58412;SDS011;44209;52.952;6.790;2023-06-22T07:07:36;17.60;;;15.63;;
58412;SDS011;44209;52.952;6.790;2023-06-22T07:10:02;16.55;;;14.85;;
58412;SDS011;44209;52.952;6.790;2023-06-22T07:12:28;15.77;;;14.18;;
58412;SDS011;44209;52.952;6.790;2023-06-22T07:14:56;15.70;;;14.10;;
58412;SDS011;44209;52.952;6.790;2023-06-22T07:17:30;15.93;;;14.32;;
58412;SDS011;44209;52.952;6.790;2023-06-22T07:19:56;15.50;;;13.75;;
58412;SDS011;44209;52.952;6.790;2023-06-22T07:22:21;15.35;;;13.65;;
58412;SDS011;44209;52.952;6.790;2023-06-22T07:24:47;16.30;;;14.60;;
58412;SDS011;44209;52.952;6.790;2023-06-22T07:27:14;16.05;;;13.57;;
58412;SDS011;44209;52.952;6.790;2023-06-22T07:29:41;15.25;;;13.75;;
58412;SDS011;44209;52.952;6.790;2023-06-22T07:32:08;14.43;;;12.98;;
58412;SDS011;44209;52.952;6.790;2023-06-22T07:34:34;18.48;;;14.25;;
58412;SDS011;44209;52.952;6.790;2023-06-22T07:36:59;15.68;;;12.18;;
58412;SDS011;44209;52.952;6.790;2023-06-22T07:39:25;12.35;;;11.05;;
58412;SDS011;44209;52.952;6.790;2023-06-22T07:41:52;12.40;;;11.10;;
58412;SDS011;44209;52.952;6.790;2023-06-22T07:44:18;12.82;;;11.52;;
58412;SDS011;44209;52.952;6.790;2023-06-22T07:46:44;10.70;;;9.60;;
58412;SDS011;44209;52.952;6.790;2023-06-22T07:49:09;11.18;;;9.55;;
58412;SDS011;44209;52.952;6.790;2023-06-22T07:51:35;11.02;;;9.77;;
58412;SDS011;44209;52.952;6.790;2023-06-22T07:54:01;10.68;;;8.75;;
58412;SDS011;44209;52.952;6.790;2023-06-22T07:56:27;13.30;;;10.00;;
58412;SDS011;44209;52.952;6.790;2023-06-22T07:58:52;12.70;;;9.50;;
58412;SDS011;44209;52.952;6.790;2023-06-22T08:01:18;12.68;;;10.38;;
58412;SDS011;44209;52.952;6.790;2023-06-22T08:03:47;10.07;;;9.00;;
58412;SDS011;44209;52.952;6.790;2023-06-22T08:06:13;13.00;;;10.77;;
58412;SDS011;44209;52.952;6.790;2023-06-22T08:08:39;10.10;;;9.02;;
58412;SDS011;44209;52.952;6.790;2023-06-22T08:11:05;12.60;;;10.50;;
58412;SDS011;44209;52.952;6.790;2023-06-22T08:13:31;11.52;;;10.35;;
58412;SDS011;44209;52.952;6.790;2023-06-22T08:15:57;11.68;;;10.40;;
58412;SDS011;44209;52.952;6.790;2023-06-22T08:18:22;12.23;;;9.70;;
58412;SDS011;44209;52.952;6.790;2023-06-22T08:20:48;10.85;;;9.73;;
58412;SDS011;44209;52.952;6.790;2023-06-22T08:23:14;12.10;;;10.90;;
58412;SDS011;44209;52.952;6.790;2023-06-22T08:25:40;13.25;;;11.23;;
58412;SDS011;44209;52.952;6.790;2023-06-22T08:28:06;11.05;;;9.50;;
58412;SDS011;44209;52.952;6.790;2023-06-22T08:30:32;12.40;;;10.00;;
58412;SDS011;44209;52.952;6.790;2023-06-22T08:32:58;12.45;;;9.80;;
58412;SDS011;44209;52.952;6.790;2023-06-22T08:35:24;11.95;;;10.65;;
58412;SDS011;44209;52.952;6.790;2023-06-22T08:37:50;11.18;;;9.98;;
58412;SDS011;44209;52.952;6.790;2023-06-22T08:40:22;13.98;;;10.85;;
58412;SDS011;44209;52.952;6.790;2023-06-22T08:42:49;11.43;;;9.95;;
58412;SDS011;44209;52.952;6.790;2023-06-22T08:45:15;12.82;;;10.48;;
58412;SDS011;44209;52.952;6.790;2023-06-22T08:47:41;12.13;;;10.80;;
58412;SDS011;44209;52.952;6.790;2023-06-22T08:50:08;14.57;;;10.98;;
58412;SDS011;44209;52.952;6.790;2023-06-22T08:52:35;12.55;;;11.25;;
58412;SDS011;44209;52.952;6.790;2023-06-22T08:55:01;12.05;;;10.35;;
58412;SDS011;44209;52.952;6.790;2023-06-22T08:57:27;12.50;;;10.82;;
58412;SDS011;44209;52.952;6.790;2023-06-22T08:59:53;12.70;;;10.90;;
58412;SDS011;44209;52.952;6.790;2023-06-22T09:02:23;14.00;;;11.05;;
58412;SDS011;44209;52.952;6.790;2023-06-22T09:04:49;12.82;;;10.95;;
58412;SDS011;44209;52.952;6.790;2023-06-22T09:07:20;13.40;;;11.98;;
58412;SDS011;44209;52.952;6.790;2023-06-22T09:09:51;12.60;;;10.68;;
58412;SDS011;44209;52.952;6.790;2023-06-22T09:12:17;12.30;;;10.70;;
58412;SDS011;44209;52.952;6.790;2023-06-22T09:14:45;12.25;;;10.95;;
58412;SDS011;44209;52.952;6.790;2023-06-22T09:17:12;10.75;;;9.65;;
58412;SDS011;44209;52.952;6.790;2023-06-22T09:19:38;14.13;;;12.02;;
58412;SDS011;44209;52.952;6.790;2023-06-22T09:22:04;15.48;;;11.05;;
58412;SDS011;44209;52.952;6.790;2023-06-22T09:24:31;10.65;;;9.55;;
58412;SDS011;44209;52.952;6.790;2023-06-22T09:26:57;11.85;;;10.23;;
58412;SDS011;44209;52.952;6.790;2023-06-22T09:29:23;11.82;;;10.57;;
58412;SDS011;44209;52.952;6.790;2023-06-22T09:31:49;13.30;;;10.35;;
58412;SDS011;44209;52.952;6.790;2023-06-22T09:34:14;11.93;;;10.73;;
58412;SDS011;44209;52.952;6.790;2023-06-22T09:36:45;12.35;;;11.02;;
58412;SDS011;44209;52.952;6.790;2023-06-22T09:39:14;13.35;;;10.32;;
58412;SDS011;44209;52.952;6.790;2023-06-22T09:41:39;12.30;;;10.43;;
58412;SDS011;44209;52.952;6.790;2023-06-22T09:44:05;10.98;;;9.60;;
58412;SDS011;44209;52.952;6.790;2023-06-22T09:46:31;12.20;;;9.60;;
58412;SDS011;44209;52.952;6.790;2023-06-22T09:48:57;13.98;;;10.30;;
58412;SDS011;44209;52.952;6.790;2023-06-22T09:51:23;14.05;;;11.75;;
58412;SDS011;44209;52.952;6.790;2023-06-22T09:53:49;13.57;;;11.57;;
58412;SDS011;44209;52.952;6.790;2023-06-22T09:56:15;12.55;;;11.25;;
58412;SDS011;44209;52.952;6.790;2023-06-22T09:58:42;10.93;;;9.82;;
58412;SDS011;44209;52.952;6.790;2023-06-22T10:01:08;12.50;;;11.05;;
58412;SDS011;44209;52.952;6.790;2023-06-22T10:03:34;14.02;;;12.38;;
58412;SDS011;44209;52.952;6.790;2023-06-22T10:06:00;13.38;;;11.30;;
58412;SDS011;44209;52.952;6.790;2023-06-22T10:08:26;14.23;;;11.57;;
58412;SDS011;44209;52.952;6.790;2023-06-22T10:10:52;14.55;;;11.82;;
58412;SDS011;44209;52.952;6.790;2023-06-22T10:13:17;12.15;;;10.65;;
58412;SDS011;44209;52.952;6.790;2023-06-22T10:15:44;14.77;;;13.27;;
58412;SDS011;44209;52.952;6.790;2023-06-22T10:18:15;13.75;;;12.32;;
58412;SDS011;44209;52.952;6.790;2023-06-22T10:20:41;15.07;;;12.77;;
58412;SDS011;44209;52.952;6.790;2023-06-22T10:23:07;12.05;;;10.75;;
58412;SDS011;44209;52.952;6.790;2023-06-22T10:25:33;14.80;;;12.80;;
58412;SDS011;44209;52.952;6.790;2023-06-22T10:27:58;13.57;;;11.38;;
58412;SDS011;44209;52.952;6.790;2023-06-22T10:30:24;14.77;;;11.23;;
58412;SDS011;44209;52.952;6.790;2023-06-22T10:32:50;14.52;;;12.45;;
58412;SDS011;44209;52.952;6.790;2023-06-22T10:35:16;12.75;;;10.45;;
58412;SDS011;44209;52.952;6.790;2023-06-22T10:37:45;11.07;;;9.68;;
58412;SDS011;44209;52.952;6.790;2023-06-22T10:40:12;10.65;;;9.63;;
58412;SDS011;44209;52.952;6.790;2023-06-22T10:42:39;12.52;;;10.60;;
58412;SDS011;44209;52.952;6.790;2023-06-22T10:45:05;12.70;;;10.73;;
58412;SDS011;44209;52.952;6.790;2023-06-22T10:47:31;11.13;;;9.80;;
58412;SDS011;44209;52.952;6.790;2023-06-22T10:49:56;12.68;;;11.10;;
58412;SDS011;44209;52.952;6.790;2023-06-22T10:52:22;11.07;;;8.75;;
58412;SDS011;44209;52.952;6.790;2023-06-22T10:54:48;11.95;;;9.07;;
58412;SDS011;44209;52.952;6.790;2023-06-22T10:57:14;12.48;;;10.27;;
58412;SDS011;44209;52.952;6.790;2023-06-22T10:59:40;10.75;;;9.50;;
58412;SDS011;44209;52.952;6.790;2023-06-22T11:02:05;11.98;;;10.80;;
58412;SDS011;44209;52.952;6.790;2023-06-22T11:04:31;11.60;;;9.35;;
58412;SDS011;44209;52.952;6.790;2023-06-22T11:06:57;11.95;;;10.32;;
58412;SDS011;44209;52.952;6.790;2023-06-22T11:09:23;12.65;;;11.20;;
58412;SDS011;44209;52.952;6.790;2023-06-22T11:11:49;11.95;;;10.73;;
58412;SDS011;44209;52.952;6.790;2023-06-22T11:14:18;11.63;;;9.85;;
58412;SDS011;44209;52.952;6.790;2023-06-22T11:16:44;12.55;;;10.82;;
58412;SDS011;44209;52.952;6.790;2023-06-22T11:19:11;10.20;;;8.57;;
58412;SDS011;44209;52.952;6.790;2023-06-22T11:21:37;10.43;;;9.40;;
58412;SDS011;44209;52.952;6.790;2023-06-22T11:24:03;9.95;;;8.98;;
58412;SDS011;44209;52.952;6.790;2023-06-22T11:26:29;12.50;;;11.30;;
58412;SDS011;44209;52.952;6.790;2023-06-22T11:28:56;10.85;;;9.68;;
58412;SDS011;44209;52.952;6.790;2023-06-22T11:31:23;12.32;;;11.02;;
58412;SDS011;44209;52.952;6.790;2023-06-22T11:33:49;12.30;;;10.95;;
58412;SDS011;44209;52.952;6.790;2023-06-22T11:36:15;12.15;;;10.40;;
58412;SDS011;44209;52.952;6.790;2023-06-22T11:38:41;10.10;;;9.10;;
58412;SDS011;44209;52.952;6.790;2023-06-22T11:41:07;12.48;;;10.30;;
58412;SDS011;44209;52.952;6.790;2023-06-22T11:43:33;11.65;;;10.13;;
58412;SDS011;44209;52.952;6.790;2023-06-22T11:46:00;9.77;;;8.77;;
58412;SDS011;44209;52.952;6.790;2023-06-22T11:48:27;12.02;;;9.48;;
58412;SDS011;44209;52.952;6.790;2023-06-22T11:50:53;9.45;;;8.55;;
58412;SDS011;44209;52.952;6.790;2023-06-22T11:53:20;10.32;;;8.32;;
58412;SDS011;44209;52.952;6.790;2023-06-22T11:55:46;10.75;;;9.65;;
58412;SDS011;44209;52.952;6.790;2023-06-22T11:58:13;9.00;;;8.07;;
58412;SDS011;44209;52.952;6.790;2023-06-22T12:00:38;9.98;;;8.18;;
58412;SDS011;44209;52.952;6.790;2023-06-22T12:03:04;9.75;;;8.75;;
58412;SDS011;44209;52.952;6.790;2023-06-22T12:05:30;10.38;;;8.70;;
58412;SDS011;44209;52.952;6.790;2023-06-22T12:07:55;11.02;;;9.55;;
58412;SDS011;44209;52.952;6.790;2023-06-22T12:10:22;11.80;;;9.30;;
58412;SDS011;44209;52.952;6.790;2023-06-22T12:12:48;13.63;;;9.25;;
58412;SDS011;44209;52.952;6.790;2023-06-22T12:15:13;9.95;;;8.65;;
58412;SDS011;44209;52.952;6.790;2023-06-22T12:17:39;8.15;;;7.18;;
58412;SDS011;44209;52.952;6.790;2023-06-22T12:20:06;14.20;;;8.80;;
58412;SDS011;44209;52.952;6.790;2023-06-22T12:22:33;12.43;;;8.25;;
58412;SDS011;44209;52.952;6.790;2023-06-22T12:24:59;7.97;;;7.15;;
58412;SDS011;44209;52.952;6.790;2023-06-22T12:27:25;8.75;;;7.85;;
58412;SDS011;44209;52.952;6.790;2023-06-22T12:29:51;7.43;;;6.43;;
58412;SDS011;44209;52.952;6.790;2023-06-22T12:32:17;10.48;;;7.80;;
58412;SDS011;44209;52.952;6.790;2023-06-22T12:34:43;8.38;;;7.45;;
58412;SDS011;44209;52.952;6.790;2023-06-22T12:37:09;8.18;;;7.38;;
58412;SDS011;44209;52.952;6.790;2023-06-22T12:39:36;8.85;;;7.85;;
58412;SDS011;44209;52.952;6.790;2023-06-22T12:42:02;7.88;;;7.10;;
58412;SDS011;44209;52.952;6.790;2023-06-22T12:44:28;8.68;;;7.35;;
58412;SDS011;44209;52.952;6.790;2023-06-22T12:46:53;14.75;;;8.45;;
58412;SDS011;44209;52.952;6.790;2023-06-22T12:49:19;11.23;;;7.32;;
58412;SDS011;44209;52.952;6.790;2023-06-22T12:51:45;8.20;;;6.45;;
58412;SDS011;44209;52.952;6.790;2023-06-22T12:54:11;12.30;;;8.73;;
58412;SDS011;44209;52.952;6.790;2023-06-22T12:56:37;11.10;;;8.00;;
58412;SDS011;44209;52.952;6.790;2023-06-22T12:59:06;9.95;;;8.95;;
58412;SDS011;44209;52.952;6.790;2023-06-22T13:01:32;9.55;;;7.45;;
58412;SDS011;44209;52.952;6.790;2023-06-22T13:03:58;9.13;;;8.20;;
58412;SDS011;44209;52.952;6.790;2023-06-22T13:06:24;9.20;;;7.35;;
58412;SDS011;44209;52.952;6.790;2023-06-22T13:08:50;9.27;;;7.38;;
58412;SDS011;44209;52.952;6.790;2023-06-22T13:11:16;8.55;;;7.75;;
58412;SDS011;44209;52.952;6.790;2023-06-22T13:13:43;9.40;;;7.47;;
58412;SDS011;44209;52.952;6.790;2023-06-22T13:16:10;9.15;;;8.25;;
58412;SDS011;44209;52.952;6.790;2023-06-22T13:18:35;10.27;;;8.40;;
58412;SDS011;44209;52.952;6.790;2023-06-22T13:21:01;9.90;;;8.07;;
58412;SDS011;44209;52.952;6.790;2023-06-22T13:23:28;15.18;;;10.02;;
58412;SDS011;44209;52.952;6.790;2023-06-22T13:25:53;10.75;;;9.63;;
58412;SDS011;44209;52.952;6.790;2023-06-22T13:28:19;9.90;;;8.90;;
58412;SDS011;44209;52.952;6.790;2023-06-22T13:30:46;11.48;;;10.15;;
58412;SDS011;44209;52.952;6.790;2023-06-22T13:33:15;10.27;;;9.10;;
58412;SDS011;44209;52.952;6.790;2023-06-22T13:35:42;10.43;;;8.65;;
58412;SDS011;44209;52.952;6.790;2023-06-22T13:38:08;10.68;;;9.48;;
58412;SDS011;44209;52.952;6.790;2023-06-22T13:40:34;12.20;;;9.25;;
58412;SDS011;44209;52.952;6.790;2023-06-22T13:43:01;8.38;;;7.57;;
58412;SDS011;44209;52.952;6.790;2023-06-22T13:45:26;10.98;;;8.77;;
58412;SDS011;44209;52.952;6.790;2023-06-22T13:47:52;11.20;;;9.13;;
58412;SDS011;44209;52.952;6.790;2023-06-22T13:50:18;11.02;;;8.70;;
58412;SDS011;44209;52.952;6.790;2023-06-22T13:52:44;9.57;;;8.57;;
58412;SDS011;44209;52.952;6.790;2023-06-22T13:55:10;10.68;;;8.77;;
58412;SDS011;44209;52.952;6.790;2023-06-22T13:57:36;8.77;;;7.88;;
58412;SDS011;44209;52.952;6.790;2023-06-22T14:00:03;9.38;;;8.20;;
58412;SDS011;44209;52.952;6.790;2023-06-22T14:02:33;9.23;;;7.75;;
58412;SDS011;44209;52.952;6.790;2023-06-22T14:04:59;9.63;;;8.20;;
58412;SDS011;44209;52.952;6.790;2023-06-22T14:07:25;10.07;;;8.85;;
58412;SDS011;44209;52.952;6.790;2023-06-22T14:09:50;9.60;;;8.50;;
58412;SDS011;44209;52.952;6.790;2023-06-22T14:12:16;9.70;;;7.70;;
58412;SDS011;44209;52.952;6.790;2023-06-22T14:14:45;11.45;;;8.57;;
58412;SDS011;44209;52.952;6.790;2023-06-22T14:17:11;10.40;;;8.20;;
58412;SDS011;44209;52.952;6.790;2023-06-22T14:19:37;9.88;;;7.70;;
58412;SDS011;44209;52.952;6.790;2023-06-22T14:22:02;9.18;;;7.68;;
58412;SDS011;44209;52.952;6.790;2023-06-22T14:24:28;8.27;;;7.30;;
58412;SDS011;44209;52.952;6.790;2023-06-22T14:26:54;10.60;;;8.18;;
58412;SDS011;44209;52.952;6.790;2023-06-22T14:29:24;9.05;;;7.82;;